createdAt,value
2018-06-25T00:00:45.347Z,76.60
2018-06-25T00:03:13.095Z,76.49
2018-06-25T00:05:41.423Z,76.46
2018-06-25T00:08:10.323Z,76.56
2018-06-25T00:10:38.086Z,76.41
2018-06-25T00:13:06.987Z,76.11
2018-06-25T00:15:35.311Z,76.08
2018-06-25T00:18:03.634Z,75.94
2018-06-25T00:20:31.970Z,75.83
2018-06-25T00:23:00.289Z,75.79
2018-06-25T00:25:28.040Z,75.52
2018-06-25T00:27:56.941Z,75.62
2018-06-25T00:30:25.267Z,75.84
2018-06-25T00:32:53.000Z,76.15
2018-06-25T00:35:21.903Z,76.26
2018-06-25T00:37:50.218Z,76.50
2018-06-25T00:40:18.541Z,76.59
2018-06-25T00:42:46.289Z,76.63
2018-06-25T00:45:15.198Z,76.47
2018-06-25T00:47:43.514Z,76.33
2018-06-25T00:50:11.841Z,76.18
2018-06-25T00:52:40.174Z,75.97
2018-06-25T00:55:08.500Z,75.72
2018-06-25T00:57:37.760Z,75.55
2018-06-25T01:00:06.085Z,75.41
2018-06-25T01:02:34.408Z,75.31
2018-06-25T01:05:02.732Z,75.62
2018-06-25T01:07:30.534Z,76.47
2018-06-25T01:09:59.748Z,76.93
2018-06-25T01:12:27.867Z,77.63
2018-06-25T01:14:55.610Z,77.57
2018-06-25T01:17:24.508Z,77.95
2018-06-25T01:19:52.284Z,77.82
2018-06-25T01:22:21.177Z,77.56
2018-06-25T01:24:48.949Z,77.68
2018-06-25T01:27:17.278Z,77.51
2018-06-25T01:29:46.182Z,77.89
2018-06-25T01:32:14.506Z,78.11
2018-06-25T01:34:42.855Z,78.23
2018-06-25T01:37:11.170Z,78.37
2018-06-25T01:39:39.493Z,78.72
2018-06-25T01:42:07.822Z,78.78
2018-06-25T01:44:36.134Z,79.09
2018-06-25T01:47:04.468Z,79.21
2018-06-25T01:49:32.787Z,79.36
2018-06-25T01:52:00.523Z,78.89
2018-06-25T01:54:28.847Z,78.83
2018-06-25T01:56:57.166Z,79.14
2018-06-25T01:59:26.123Z,79.42
2018-06-25T02:01:54.444Z,79.71
2018-06-25T02:04:22.202Z,79.73
2018-06-25T02:06:50.541Z,79.70
2018-06-25T02:09:19.433Z,79.93
2018-06-25T02:11:47.164Z,80.33
2018-06-25T02:14:16.067Z,80.46
2018-06-25T02:16:44.387Z,80.65
2018-06-25T02:19:12.711Z,80.48
2018-06-25T02:21:41.024Z,80.38
2018-06-25T02:24:09.350Z,80.32
2018-06-25T02:26:37.089Z,80.19
2018-06-25T02:29:05.475Z,80.17
2018-06-25T02:31:34.368Z,80.05
2018-06-25T02:34:02.694Z,79.85
2018-06-25T02:36:31.025Z,80.01
2018-06-25T02:38:59.348Z,80.00
2018-06-25T02:41:27.669Z,80.10
2018-06-25T02:43:55.417Z,80.12
2018-06-25T02:46:24.329Z,80.14
2018-06-25T02:48:52.660Z,79.96
2018-06-25T02:51:20.988Z,79.97
2018-06-25T02:53:49.313Z,80.05
2018-06-25T02:56:17.645Z,79.92
2018-06-25T02:58:45.973Z,79.80
2018-06-25T03:01:14.350Z,79.77
2018-06-25T03:03:42.679Z,79.77
2018-06-25T03:06:10.419Z,79.67
2018-06-25T03:08:39.320Z,79.47
2018-06-25T03:11:07.638Z,79.28
2018-06-25T03:13:35.970Z,79.15
2018-06-25T03:16:04.292Z,79.24
2018-06-25T03:18:32.621Z,79.30
2018-06-25T03:21:00.950Z,79.20
2018-06-25T03:23:29.273Z,79.01
2018-06-25T03:25:57.015Z,78.86
2018-06-25T03:28:25.915Z,78.68
2018-06-25T03:30:53.669Z,78.64
2018-06-25T03:33:22.574Z,78.66
2018-06-25T03:35:50.894Z,78.80
2018-06-25T03:38:19.216Z,78.82
2018-06-25T03:40:47.545Z,78.88
2018-06-25T03:43:15.941Z,78.71
2018-06-25T03:45:44.201Z,78.69
2018-06-25T03:48:12.576Z,78.82
2018-06-25T03:50:40.851Z,78.84
2018-06-25T03:53:08.592Z,78.91
2018-06-25T03:55:36.910Z,79.12
2018-06-25T03:58:05.228Z,79.29
2018-06-25T04:00:34.797Z,79.21
2018-06-25T04:03:03.172Z,79.46
2018-06-25T04:05:31.536Z,79.50
2018-06-25T04:07:59.829Z,79.39
2018-06-25T04:10:28.167Z,79.46
2018-06-25T04:12:56.483Z,79.50
2018-06-25T04:15:24.808Z,79.61
2018-06-25T04:17:52.585Z,79.56
2018-06-25T04:20:21.479Z,79.61
2018-06-25T04:22:49.983Z,79.55
2018-06-25T04:25:18.680Z,79.67
2018-06-25T04:27:46.452Z,79.79
2018-06-25T04:30:15.308Z,79.78
2018-06-25T04:32:43.065Z,79.92
2018-06-25T04:35:11.380Z,79.98
2018-06-25T04:37:40.285Z,80.02
2018-06-25T04:40:08.624Z,79.92
2018-06-25T04:42:37.161Z,79.84
2018-06-25T04:45:04.924Z,79.51
2018-06-25T04:47:33.818Z,79.12
2018-06-25T04:50:01.556Z,78.71
2018-06-25T04:52:30.465Z,78.42
2018-06-25T04:54:58.198Z,78.47
2018-06-25T04:57:27.098Z,78.58
2018-06-25T04:59:55.417Z,78.51
2018-06-25T05:02:23.895Z,78.31
2018-06-25T05:04:51.690Z,78.45
2018-06-25T05:07:20.013Z,78.65
2018-06-25T05:09:48.910Z,78.93
2018-06-25T05:12:17.227Z,79.21
2018-06-25T05:14:45.872Z,79.51
2018-06-25T05:17:14.190Z,79.62
2018-06-25T05:19:42.508Z,79.88
2018-06-25T05:22:10.240Z,79.91
2018-06-25T05:24:39.182Z,79.75
2018-06-25T05:27:06.926Z,79.77
2018-06-25T05:29:35.828Z,79.77
2018-06-25T05:32:04.157Z,79.73
2018-06-25T05:34:32.477Z,79.66
2018-06-25T05:37:00.801Z,79.66
2018-06-25T05:39:29.468Z,79.56
2018-06-25T05:41:57.950Z,79.41
2018-06-25T05:44:26.269Z,79.40
2018-06-25T05:46:54.588Z,79.47
2018-06-25T05:49:23.286Z,79.57
2018-06-25T05:51:51.624Z,79.65
2018-06-25T05:54:20.879Z,79.78
2018-06-25T05:56:49.209Z,79.93
2018-06-25T05:59:17.540Z,79.75
2018-06-25T06:01:45.268Z,79.90
2018-06-25T06:04:13.595Z,79.99
2018-06-25T06:06:42.573Z,79.97
2018-06-25T06:09:10.314Z,79.91
2018-06-25T06:11:39.223Z,79.84
2018-06-25T06:14:07.534Z,79.78
2018-06-25T06:16:35.857Z,79.83
2018-06-25T06:19:04.183Z,80.04
2018-06-25T06:21:31.924Z,79.97
2018-06-25T06:24:00.259Z,79.93
2018-06-25T06:26:28.638Z,79.99
2018-06-25T06:28:56.900Z,80.12
2018-06-25T06:31:25.800Z,80.10
2018-06-25T06:33:54.121Z,79.93
2018-06-25T06:36:22.435Z,79.61
2018-06-25T06:38:51.230Z,79.31
2018-06-25T06:41:19.425Z,78.83
2018-06-25T06:43:48.319Z,78.97
2018-06-25T06:46:16.630Z,79.29
2018-06-25T06:48:44.954Z,79.24
2018-06-25T06:51:13.270Z,79.23
2018-06-25T06:53:41.584Z,78.90
2018-06-25T06:56:09.919Z,78.55
2018-06-25T06:58:38.253Z,78.33
2018-06-25T07:01:06.593Z,77.93
2018-06-25T07:03:34.912Z,77.84
2018-06-25T07:06:02.677Z,77.69
2018-06-25T07:08:31.024Z,77.49
2018-06-25T07:10:59.942Z,77.47
2018-06-25T07:13:28.246Z,77.59
2018-06-25T07:15:56.574Z,77.64
2018-06-25T07:18:24.904Z,77.82
2018-06-25T07:20:53.284Z,78.04
2018-06-25T07:23:21.567Z,78.22
2018-06-25T07:25:49.890Z,78.33
2018-06-25T07:28:18.213Z,78.31
2018-06-25T07:30:46.542Z,78.24
2018-06-25T07:33:14.864Z,78.14
2018-06-25T07:35:43.184Z,78.12
2018-06-25T07:38:11.518Z,78.07
2018-06-25T07:40:39.860Z,78.04
2018-06-25T07:43:07.602Z,78.16
2018-06-25T07:45:36.489Z,78.18
2018-06-25T07:48:05.157Z,78.17
2018-06-25T07:50:33.479Z,78.12
2018-06-25T07:53:01.802Z,78.02
2018-06-25T07:55:30.130Z,77.80
2018-06-25T07:57:58.443Z,77.68
2018-06-25T08:00:26.789Z,77.21
2018-06-25T08:02:55.100Z,76.87
2018-06-25T08:05:22.856Z,76.78
2018-06-25T08:07:51.745Z,76.21
2018-06-25T08:10:20.170Z,75.26
2018-06-25T08:12:48.480Z,75.05
2018-06-25T08:15:17.257Z,74.70
2018-06-25T08:17:44.997Z,74.12
2018-06-25T08:20:14.220Z,74.05
2018-06-25T08:22:42.536Z,73.69
2018-06-25T08:25:11.202Z,73.17
2018-06-25T08:27:39.002Z,73.09
2018-06-25T08:30:07.902Z,72.95
2018-06-25T08:32:36.186Z,71.59
2018-06-25T08:35:04.513Z,70.89
2018-06-25T08:37:32.843Z,70.11
2018-06-25T08:40:00.598Z,69.50
2018-06-25T08:42:29.502Z,68.42
2018-06-25T08:44:57.244Z,68.26
2018-06-25T08:47:26.371Z,68.05
2018-06-25T08:49:54.498Z,67.96
2018-06-25T08:52:23.179Z,67.04
2018-06-25T08:54:53.018Z,65.83
2018-06-25T08:57:21.337Z,63.96
2018-06-25T08:59:49.680Z,64.21
2018-06-25T09:02:17.725Z,64.71
2018-06-25T09:04:46.630Z,64.99
2018-06-25T09:07:14.949Z,64.96
2018-06-25T09:09:42.747Z,64.96
2018-06-25T09:12:11.669Z,64.10
2018-06-25T09:14:39.985Z,63.51
2018-06-25T09:17:08.309Z,62.85
2018-06-25T09:19:36.632Z,62.76
2018-06-25T09:22:05.261Z,62.36
2018-06-25T09:24:33.298Z,62.30
2018-06-25T09:27:02.446Z,61.81
2018-06-25T09:29:30.770Z,61.53
2018-06-25T09:31:59.095Z,61.43
2018-06-25T09:34:27.429Z,61.26
2018-06-25T09:36:55.764Z,61.50
2018-06-25T09:39:23.501Z,60.62
2018-06-25T09:41:52.711Z,59.68
2018-06-25T09:44:21.042Z,59.32
2018-06-25T09:46:49.377Z,59.37
2018-06-25T09:49:17.712Z,59.31
2018-06-25T09:51:46.035Z,59.33
2018-06-25T09:54:13.771Z,59.29
2018-06-25T09:56:42.669Z,59.02
2018-06-25T09:59:11.000Z,59.33
2018-06-25T10:01:39.314Z,59.25
2018-06-25T10:04:07.629Z,58.35
2018-06-25T10:06:35.951Z,58.12
2018-06-25T10:09:04.270Z,57.52
2018-06-25T10:11:32.610Z,57.23
2018-06-25T10:14:01.018Z,57.18
2018-06-25T10:16:29.353Z,57.36
2018-06-25T10:18:57.682Z,57.09
2018-06-25T10:21:26.081Z,56.71
2018-06-25T10:23:54.336Z,56.53
2018-06-25T10:26:23.653Z,56.29
2018-06-25T10:28:51.975Z,56.04
2018-06-25T10:31:19.713Z,55.76
2018-06-25T10:33:48.037Z,54.96
2018-06-25T10:36:16.365Z,54.52
2018-06-25T10:38:45.264Z,54.56
2018-06-25T10:41:13.597Z,54.78
2018-06-25T10:43:41.922Z,55.11
2018-06-25T10:46:09.672Z,55.00
2018-06-25T10:48:38.582Z,55.33
2018-06-25T10:51:06.323Z,55.14
2018-06-25T10:53:35.224Z,54.59
2018-06-25T10:56:04.109Z,54.54
2018-06-25T10:58:31.855Z,54.83
2018-06-25T11:01:00.761Z,53.95
2018-06-25T11:03:29.070Z,53.77
2018-06-25T11:05:56.881Z,53.31
2018-06-25T11:08:26.008Z,53.69
2018-06-25T11:10:54.117Z,53.68
2018-06-25T11:13:22.429Z,53.61
2018-06-25T11:15:50.755Z,54.16
2018-06-25T11:18:19.092Z,54.33
2018-06-25T11:20:47.420Z,54.39
2018-06-25T11:23:15.745Z,54.30
2018-06-25T11:25:44.079Z,55.06
2018-06-25T11:28:12.408Z,55.03
2018-06-25T11:30:40.731Z,54.62
2018-06-25T11:33:09.425Z,54.50
2018-06-25T11:35:37.738Z,54.76
2018-06-25T11:38:06.077Z,54.54
2018-06-25T11:40:34.419Z,54.21
2018-06-25T11:43:02.733Z,54.63
2018-06-25T11:45:30.470Z,54.45
2018-06-25T11:47:59.380Z,54.23
2018-06-25T11:50:27.702Z,54.26
2018-06-25T11:52:55.482Z,54.14
2018-06-25T11:55:24.383Z,53.87
2018-06-25T11:57:52.711Z,54.17
2018-06-25T12:00:21.038Z,54.01
2018-06-25T12:02:49.473Z,54.39
2018-06-25T12:05:17.120Z,54.22
2018-06-25T12:07:45.504Z,54.25
2018-06-25T12:10:14.350Z,54.05
2018-06-25T12:12:42.688Z,54.06
2018-06-25T12:15:11.036Z,53.75
2018-06-25T12:17:39.412Z,53.64
2018-06-25T12:20:07.753Z,53.65
2018-06-25T12:22:35.901Z,53.65
2018-06-25T12:25:04.390Z,53.53
2018-06-25T12:27:32.735Z,53.16
2018-06-25T12:30:00.506Z,53.28
2018-06-25T12:32:29.841Z,53.00
2018-06-25T12:34:58.200Z,52.96
2018-06-25T12:37:25.956Z,52.71
2018-06-25T12:39:54.862Z,52.64
2018-06-25T12:42:23.175Z,52.81
2018-06-25T12:44:51.521Z,52.97
2018-06-25T12:47:19.883Z,52.88
2018-06-25T12:49:47.622Z,53.00
2018-06-25T12:52:16.947Z,53.02
2018-06-25T12:54:44.460Z,53.50
2018-06-25T12:57:12.884Z,53.12
2018-06-25T12:59:41.709Z,52.91
2018-06-25T13:02:09.451Z,52.83
2018-06-25T13:04:37.784Z,52.84
2018-06-25T13:07:06.682Z,52.70
2018-06-25T13:09:40.373Z,52.55
2018-06-25T13:12:09.247Z,52.35
2018-06-25T13:14:37.591Z,51.00
2018-06-25T13:17:05.329Z,50.94
2018-06-25T13:19:33.693Z,50.15
2018-06-25T13:22:02.616Z,48.54
2018-06-25T13:24:30.935Z,48.55
2018-06-25T13:26:59.487Z,48.90
2018-06-25T13:29:27.614Z,49.26
2018-06-25T13:31:55.930Z,48.91
2018-06-25T13:34:23.670Z,48.56
2018-06-25T13:36:52.589Z,47.13
2018-06-25T13:39:20.958Z,47.80
2018-06-25T13:41:48.705Z,47.91
2018-06-25T13:44:17.668Z,48.22
2018-06-25T13:46:45.450Z,48.12
2018-06-25T13:49:14.352Z,48.36
2018-06-25T13:51:42.898Z,47.13
2018-06-25T13:54:11.253Z,46.54
2018-06-25T13:56:39.333Z,47.07
2018-06-25T13:59:07.076Z,47.54
2018-06-25T14:01:35.981Z,48.37
2018-06-25T14:04:05.453Z,48.70
2018-06-25T14:06:36.491Z,48.82
2018-06-25T14:09:01.799Z,48.49
2018-06-25T14:11:30.119Z,47.76
2018-06-25T14:13:57.857Z,47.28
2018-06-25T14:16:26.818Z,47.16
2018-06-25T14:18:56.550Z,47.04
2018-06-25T14:21:30.230Z,47.25
2018-06-25T14:24:01.349Z,46.86
2018-06-25T14:26:31.256Z,46.82
2018-06-25T14:29:00.619Z,46.99
2018-06-25T14:34:13.898Z,44.88
2018-06-25T14:36:49.838Z,42.59
2018-06-25T14:39:23.492Z,42.60
2018-06-25T14:41:52.733Z,41.45
2018-06-25T14:44:20.135Z,41.45
2018-06-25T14:46:53.578Z,38.66
2018-06-25T14:49:23.004Z,37.67
2018-06-25T14:51:50.995Z,37.34
2018-06-25T14:54:19.337Z,36.71
2018-06-25T14:56:48.485Z,35.57
2018-06-25T14:59:16.248Z,35.22
2018-06-25T15:01:45.359Z,34.33
2018-06-25T15:04:12.872Z,34.05
2018-06-25T15:06:41.794Z,34.18
2018-06-25T15:09:10.114Z,34.64
2018-06-25T15:11:38.450Z,34.61
2018-06-25T15:14:07.003Z,35.38
2018-06-25T15:16:36.784Z,35.71
2018-06-25T15:19:05.095Z,35.09
2018-06-25T15:21:33.370Z,34.53
2018-06-25T15:24:01.860Z,34.71
2018-06-25T15:26:30.178Z,34.84
2018-06-25T15:28:58.493Z,35.27
2018-06-25T15:31:26.866Z,35.55
2018-06-25T15:33:55.182Z,35.80
2018-06-25T15:36:23.508Z,35.67
2018-06-25T15:38:51.266Z,36.00
2018-06-25T15:41:20.267Z,36.53
2018-06-25T15:43:48.580Z,36.89
2018-06-25T15:46:16.911Z,36.68
2018-06-25T15:48:45.234Z,36.88
2018-06-25T15:51:12.979Z,36.87
2018-06-25T15:53:42.160Z,36.97
2018-06-25T15:56:09.627Z,36.54
2018-06-25T15:58:38.631Z,36.46
2018-06-25T16:01:07.011Z,36.44
2018-06-25T16:03:35.341Z,36.66
2018-06-25T16:06:04.295Z,36.74
2018-06-25T16:08:31.423Z,37.04
2018-06-25T16:11:00.339Z,36.72
2018-06-25T16:13:28.105Z,36.73
2018-06-25T16:15:57.028Z,36.81
2018-06-25T16:18:24.951Z,36.63
2018-06-25T16:20:53.865Z,36.85
2018-06-25T16:23:22.189Z,37.06
2018-06-25T16:25:51.266Z,37.13
2018-06-25T16:28:20.168Z,37.33
2018-06-25T16:30:48.470Z,37.66
2018-06-25T16:33:16.805Z,37.75
2018-06-25T16:35:45.123Z,37.77
2018-06-25T16:38:13.450Z,37.99
2018-06-25T16:40:41.834Z,38.18
2018-06-25T16:43:10.107Z,37.94
2018-06-25T16:45:38.443Z,37.90
2018-06-25T16:48:13.975Z,38.22
2018-06-25T16:50:42.286Z,38.24
2018-06-25T16:53:10.611Z,38.35
2018-06-25T16:55:38.950Z,38.54
2018-06-25T16:58:07.279Z,38.78
2018-06-25T17:00:35.593Z,39.11
2018-06-25T17:03:03.336Z,38.96
2018-06-25T17:05:32.238Z,39.01
2018-06-25T17:08:00.563Z,39.07
2018-06-25T17:10:28.306Z,39.32
2018-06-25T17:12:57.204Z,39.22
2018-06-25T17:15:29.656Z,39.29
2018-06-25T17:17:59.532Z,39.68
2018-06-25T17:20:25.941Z,39.54
2018-06-25T17:22:54.516Z,39.99
2018-06-25T17:25:23.366Z,40.01
2018-06-25T17:27:53.735Z,40.18
2018-06-25T17:30:20.229Z,40.44
2018-06-25T17:32:48.536Z,40.75
2018-06-25T17:35:17.795Z,41.12
2018-06-25T17:37:46.183Z,41.31
2018-06-25T17:40:16.972Z,41.72
2018-06-25T17:42:46.626Z,42.18
2018-06-25T17:45:13.953Z,42.51
2018-06-25T17:47:42.531Z,43.12
2018-06-25T17:50:11.112Z,43.55
2018-06-25T17:52:39.699Z,43.95
2018-06-25T17:55:08.022Z,44.72
2018-06-25T17:57:35.804Z,44.90
2018-06-25T18:00:05.697Z,45.28
2018-06-25T18:02:33.112Z,45.66
2018-06-25T18:05:02.318Z,45.81
2018-06-25T18:07:30.438Z,46.31
2018-06-25T18:10:00.491Z,46.51
2018-06-25T18:12:27.743Z,46.70
2018-06-25T18:14:56.747Z,47.07
2018-06-25T18:17:26.897Z,47.34
2018-06-25T18:19:58.711Z,47.68
2018-06-25T18:22:37.254Z,47.81
2018-06-25T18:24:59.573Z,48.01
2018-06-25T18:27:29.621Z,48.19
2018-06-25T18:29:59.553Z,48.51
2018-06-25T18:32:29.391Z,48.67
2018-06-25T18:34:57.121Z,48.91
2018-06-25T18:37:26.978Z,49.06
2018-06-25T18:39:55.711Z,49.40
2018-06-25T18:42:22.671Z,49.54
2018-06-25T18:44:53.713Z,49.77
2018-06-25T18:47:19.375Z,49.82
2018-06-25T18:49:48.300Z,49.85
2018-06-25T18:52:16.479Z,49.46
2018-06-25T18:54:44.877Z,49.33
2018-06-25T18:57:13.265Z,49.14
2018-06-25T18:59:43.262Z,49.23
2018-06-25T19:02:11.940Z,49.53
2018-06-25T19:04:42.887Z,49.77
2018-06-25T19:07:10.202Z,50.06
2018-06-25T19:09:38.324Z,50.26
2018-06-25T19:12:06.685Z,50.48
2018-06-25T19:14:35.477Z,50.59
2018-06-25T19:17:04.312Z,50.71
2018-06-25T19:19:32.664Z,50.87
2018-06-25T19:22:01.504Z,51.12
2018-06-25T19:24:30.142Z,51.72
2018-06-25T19:26:59.785Z,51.80
2018-06-25T19:29:26.413Z,51.86
2018-06-25T19:31:55.675Z,52.10
2018-06-25T19:34:24.694Z,52.26
2018-06-25T19:36:53.061Z,52.40
2018-06-25T19:39:22.565Z,52.56
2018-06-25T19:41:50.861Z,52.76
2018-06-25T19:44:23.113Z,52.99
2018-06-25T19:46:47.566Z,53.39
2018-06-25T19:49:18.881Z,53.68
2018-06-25T19:51:46.487Z,53.82
2018-06-25T19:54:15.773Z,53.94
2018-06-25T19:56:44.226Z,54.02
2018-06-25T19:59:12.396Z,54.16
2018-06-25T20:01:41.049Z,54.41
2018-06-25T20:04:09.716Z,54.65
2018-06-25T20:06:38.654Z,54.91
2018-06-25T20:09:06.878Z,55.33
2018-06-25T20:11:35.330Z,55.80
2018-06-25T20:14:03.659Z,56.19
2018-06-25T20:16:32.028Z,56.07
2018-06-25T20:19:04.201Z,56.03
2018-06-25T20:21:30.420Z,55.96
2018-06-25T20:24:00.840Z,56.16
2018-06-25T20:26:28.493Z,56.28
2018-06-25T20:28:58.571Z,56.82
2018-06-25T20:31:28.666Z,57.41
2018-06-25T20:34:06.780Z,57.54
2018-06-25T20:36:38.052Z,57.98
2018-06-25T20:39:03.438Z,58.38
2018-06-25T20:41:33.875Z,58.62
2018-06-25T20:44:04.562Z,58.63
2018-06-25T20:46:43.489Z,58.32
2018-06-25T20:49:06.608Z,58.13
2018-06-25T20:51:46.444Z,58.07
2018-06-25T20:54:15.979Z,58.35
2018-06-25T20:56:59.854Z,58.58
2018-06-25T20:59:39.393Z,58.76
2018-06-25T21:02:08.198Z,58.95
2018-06-25T21:04:40.803Z,59.20
2018-06-25T21:07:16.402Z,59.35
2018-06-25T21:09:53.492Z,59.98
2018-06-25T21:12:32.840Z,60.49
2018-06-25T21:15:22.653Z,61.03
2018-06-25T21:17:27.765Z,61.29
2018-06-25T21:19:56.097Z,61.07
2018-06-25T21:22:25.179Z,61.26
2018-06-25T21:24:54.666Z,61.61
2018-06-25T21:27:22.637Z,61.99
2018-06-25T21:29:51.545Z,62.08
2018-06-25T21:32:19.907Z,62.20
2018-06-25T21:34:51.317Z,62.20
2018-06-25T21:37:16.752Z,62.33
2018-06-25T21:39:45.285Z,62.41
2018-06-25T21:42:13.513Z,62.71
2018-06-25T21:44:41.946Z,62.99
2018-06-25T21:47:14.676Z,63.42
2018-06-25T21:49:43.544Z,63.89
2018-06-25T21:52:12.158Z,64.22
2018-06-25T21:54:40.947Z,64.83
2018-06-25T21:57:09.486Z,65.10
2018-06-25T21:59:37.743Z,65.56
2018-06-25T22:02:05.969Z,65.99
2018-06-25T22:04:33.717Z,66.61
2018-06-25T22:07:02.618Z,66.61
2018-06-25T22:09:30.425Z,66.92
2018-06-25T22:11:59.827Z,66.78
2018-06-25T22:14:29.259Z,67.25
2018-06-25T22:16:57.471Z,67.76
2018-06-25T22:19:26.740Z,68.08
2018-06-25T22:21:57.966Z,68.04
2018-06-25T22:24:27.253Z,67.70
2018-06-25T22:26:55.584Z,67.55
2018-06-25T22:29:23.880Z,67.13
2018-06-25T22:31:52.267Z,67.30
2018-06-25T22:34:20.637Z,67.39
2018-06-25T22:36:49.133Z,67.19
2018-06-25T22:39:16.872Z,67.04
2018-06-25T22:41:45.772Z,67.36
2018-06-25T22:44:14.135Z,67.58
2018-06-25T22:46:42.517Z,67.35
2018-06-25T22:49:10.846Z,67.43
2018-06-25T22:51:39.188Z,67.73
2018-06-25T22:54:07.506Z,68.21
2018-06-25T22:56:35.821Z,68.24
2018-06-25T22:59:04.241Z,68.93
2018-06-25T23:01:31.998Z,69.18
2018-06-25T23:04:00.899Z,69.45
2018-06-25T23:06:29.228Z,69.35
2018-06-25T23:08:57.552Z,69.90
2018-06-25T23:11:26.624Z,70.12
2018-06-25T23:13:54.245Z,70.15
2018-06-25T23:16:22.706Z,70.57
2018-06-25T23:18:51.030Z,70.38
2018-06-25T23:21:19.373Z,70.40
2018-06-25T23:23:47.126Z,70.49
2018-06-25T23:26:16.030Z,71.34
2018-06-25T23:28:43.801Z,71.52
2018-06-25T23:31:12.136Z,71.67
2018-06-25T23:33:40.441Z,71.79
2018-06-25T23:36:09.340Z,71.96
2018-06-25T23:38:37.654Z,72.49
2018-06-25T23:41:05.977Z,72.65
2018-06-25T23:43:33.721Z,72.58
2018-06-25T23:46:02.633Z,72.32
2018-06-25T23:48:30.954Z,72.01
2018-06-25T23:51:00.039Z,71.92
2018-06-25T23:53:28.366Z,71.50
2018-06-25T23:55:56.693Z,71.36
2018-06-25T23:58:25.015Z,71.48
